Kirklinton, United Kingdom

5:27 PM BST on June 27, 2017 (GMT +0100)
Kershope Road | | Change Station

Elev 88 ft 54.92 °N, 2.95 °W | Updated 11 seconds ago

Overcast
Overcast
55.6 °F
Feels Like 55.6 °F
N
1.2
Wind Variable Wind from SW
Gusts 4.3 mph

Today
High -- | Low -- °F
--% Chance of Precip.
Yesterday
High -- | Low -- °F
Precip. -- in
Pressure 29.71 in
Visibility 4.3 miles
Clouds Few 1200 ft
Mostly Cloudy 1800 ft
Dew Point 55 °F
Humidity 97%
Rainfall 0.88 in
Snow Depth Not available.
4:34 AM 9:54 PM
Waxing Crescent, 17% visible
METAR EGNC 271620Z 09005KT 040V120 7000 -RA FEW012 BKN018 13/12 Q1006
Pressure 29.71 in
Visibility 4.3 miles
Clouds Few 1200 ft
Mostly Cloudy 1800 ft
Dew Point 55 °F
Humidity 97%
Rainfall 0.88 in
Snow Depth Not available.
4:34 AM 9:54 PM
Waxing Crescent, 17% visible
METAR EGNC 271620Z 09005KT 040V120 7000 -RA FEW012 BKN018 13/12 Q1006

Get Severe Weather Alerts

Thanks for signing up!

Be on the lookout for a verification email in your inbox.

You'll start receiving the daily forecast at 6 AM.

×

10-Day Weather Forecast

×

Almanac

Astronomy

Jun. 27, 2017 Rise Set
Actual Time
Civil Twilight
Nautical Twilight
Astronomical Twilight
Moon
Length of Visible Light
Length of Day
Tomorrow will be .
, % of the Moon is Illuminated

Today's Extremes

Country Highs Country Lows

Community

WunderPhotos

Category 6

Welcome to Category 6. This is the collective home for Weather Underground's featured writeups by Dr. Jeff Masters (right), Bob Henson (left), Chris Burt, and other regular contributors.

Nearby

Air Quality

  Air Quality AQ Index Pollutant
Not available.

Snow Depth

Station Depth Elevation

Earthquake Activity

City Distance Mag. Time & Date
Minimum magnitude displayed is 2.5.

Coastal Water Temperatures

Place Temperature

Stations

Nearby Weather Stations

Station Location Temp. Windchill Dew Point Humidity Wind Precip. Elev Updated Type